sensor_id;sensor_type;location;lat;lon;timestamp;P1;durP1;ratioP1;P2;durP2;ratioP2
8592;SDS011;4334;49.982;8.398;2022-12-07T00:01:14;23.33;;;13.40;;
8592;SDS011;4334;49.982;8.398;2022-12-07T00:03:44;28.13;;;14.93;;
8592;SDS011;4334;49.982;8.398;2022-12-07T00:06:12;27.37;;;15.60;;
8592;SDS011;4334;49.982;8.398;2022-12-07T00:08:42;27.30;;;15.60;;
8592;SDS011;4334;49.982;8.398;2022-12-07T00:11:09;21.57;;;12.73;;
8592;SDS011;4334;49.982;8.398;2022-12-07T00:13:38;18.53;;;10.20;;
8592;SDS011;4334;49.982;8.398;2022-12-07T00:16:06;19.43;;;10.53;;
8592;SDS011;4334;49.982;8.398;2022-12-07T00:18:35;17.47;;;9.90;;
8592;SDS011;4334;49.982;8.398;2022-12-07T00:21:03;16.27;;;9.90;;
8592;SDS011;4334;49.982;8.398;2022-12-07T00:23:31;15.13;;;9.93;;
8592;SDS011;4334;49.982;8.398;2022-12-07T00:26:04;15.63;;;9.83;;
8592;SDS011;4334;49.982;8.398;2022-12-07T00:28:32;17.17;;;10.00;;
8592;SDS011;4334;49.982;8.398;2022-12-07T00:31:00;18.90;;;11.03;;
8592;SDS011;4334;49.982;8.398;2022-12-07T00:33:29;18.67;;;11.83;;
8592;SDS011;4334;49.982;8.398;2022-12-07T00:35:56;19.17;;;10.43;;
8592;SDS011;4334;49.982;8.398;2022-12-07T00:38:24;17.20;;;10.47;;
8592;SDS011;4334;49.982;8.398;2022-12-07T00:40:54;19.73;;;11.10;;
8592;SDS011;4334;49.982;8.398;2022-12-07T00:43:23;18.40;;;10.67;;
8592;SDS011;4334;49.982;8.398;2022-12-07T00:45:50;15.43;;;9.27;;
8592;SDS011;4334;49.982;8.398;2022-12-07T00:48:18;16.43;;;9.53;;
8592;SDS011;4334;49.982;8.398;2022-12-07T00:50:46;15.00;;;9.53;;
8592;SDS011;4334;49.982;8.398;2022-12-07T00:53:13;16.23;;;10.30;;
8592;SDS011;4334;49.982;8.398;2022-12-07T00:55:40;15.00;;;8.60;;
8592;SDS011;4334;49.982;8.398;2022-12-07T00:58:07;18.13;;;8.87;;
8592;SDS011;4334;49.982;8.398;2022-12-07T01:00:36;15.13;;;8.70;;
8592;SDS011;4334;49.982;8.398;2022-12-07T01:03:04;15.87;;;9.17;;
8592;SDS011;4334;49.982;8.398;2022-12-07T01:05:33;16.57;;;9.00;;
8592;SDS011;4334;49.982;8.398;2022-12-07T01:08:00;13.73;;;8.43;;
8592;SDS011;4334;49.982;8.398;2022-12-07T01:10:27;13.87;;;9.10;;
8592;SDS011;4334;49.982;8.398;2022-12-07T01:12:55;13.80;;;8.47;;
8592;SDS011;4334;49.982;8.398;2022-12-07T01:15:23;14.40;;;8.70;;
8592;SDS011;4334;49.982;8.398;2022-12-07T01:17:51;14.20;;;8.80;;
8592;SDS011;4334;49.982;8.398;2022-12-07T01:20:19;12.93;;;8.33;;
8592;SDS011;4334;49.982;8.398;2022-12-07T01:22:46;15.43;;;8.37;;
8592;SDS011;4334;49.982;8.398;2022-12-07T01:25:13;14.13;;;9.20;;
8592;SDS011;4334;49.982;8.398;2022-12-07T01:27:40;14.33;;;8.53;;
8592;SDS011;4334;49.982;8.398;2022-12-07T01:30:10;14.13;;;8.10;;
8592;SDS011;4334;49.982;8.398;2022-12-07T01:32:38;14.17;;;8.23;;
8592;SDS011;4334;49.982;8.398;2022-12-07T01:35:06;15.73;;;8.53;;
8592;SDS011;4334;49.982;8.398;2022-12-07T01:37:37;17.10;;;10.43;;
8592;SDS011;4334;49.982;8.398;2022-12-07T01:40:05;14.07;;;8.97;;
8592;SDS011;4334;49.982;8.398;2022-12-07T01:42:33;11.73;;;7.47;;
8592;SDS011;4334;49.982;8.398;2022-12-07T01:48:11;12.53;;;7.90;;
8592;SDS011;4334;49.982;8.398;2022-12-07T01:50:43;13.93;;;8.03;;
8592;SDS011;4334;49.982;8.398;2022-12-07T01:53:13;12.47;;;8.13;;
8592;SDS011;4334;49.982;8.398;2022-12-07T01:55:42;14.50;;;8.13;;
8592;SDS011;4334;49.982;8.398;2022-12-07T01:58:11;12.70;;;7.67;;
8592;SDS011;4334;49.982;8.398;2022-12-07T02:00:39;12.07;;;8.13;;
8592;SDS011;4334;49.982;8.398;2022-12-07T02:03:08;12.03;;;7.50;;
8592;SDS011;4334;49.982;8.398;2022-12-07T02:05:40;14.33;;;7.93;;
8592;SDS011;4334;49.982;8.398;2022-12-07T02:08:09;12.40;;;7.47;;
8592;SDS011;4334;49.982;8.398;2022-12-07T02:10:38;15.67;;;9.47;;
8592;SDS011;4334;49.982;8.398;2022-12-07T02:13:06;12.37;;;8.40;;
8592;SDS011;4334;49.982;8.398;2022-12-07T02:15:39;11.57;;;7.43;;
8592;SDS011;4334;49.982;8.398;2022-12-07T02:18:22;13.33;;;7.70;;
8592;SDS011;4334;49.982;8.398;2022-12-07T02:21:01;13.97;;;8.53;;
8592;SDS011;4334;49.982;8.398;2022-12-07T02:23:38;12.77;;;8.20;;
8592;SDS011;4334;49.982;8.398;2022-12-07T02:26:32;13.87;;;8.97;;
8592;SDS011;4334;49.982;8.398;2022-12-07T02:29:22;14.93;;;9.00;;
8592;SDS011;4334;49.982;8.398;2022-12-07T02:31:53;11.80;;;7.57;;
8592;SDS011;4334;49.982;8.398;2022-12-07T02:34:31;13.47;;;8.93;;
8592;SDS011;4334;49.982;8.398;2022-12-07T02:37:03;13.30;;;8.43;;
8592;SDS011;4334;49.982;8.398;2022-12-07T02:39:37;13.73;;;8.63;;
8592;SDS011;4334;49.982;8.398;2022-12-07T02:42:12;14.73;;;8.63;;
8592;SDS011;4334;49.982;8.398;2022-12-07T02:44:44;14.53;;;8.37;;
8592;SDS011;4334;49.982;8.398;2022-12-07T02:47:13;13.67;;;9.50;;
8592;SDS011;4334;49.982;8.398;2022-12-07T02:49:43;11.93;;;7.03;;
8592;SDS011;4334;49.982;8.398;2022-12-07T02:52:11;13.67;;;7.50;;
8592;SDS011;4334;49.982;8.398;2022-12-07T02:54:38;13.57;;;7.20;;
8592;SDS011;4334;49.982;8.398;2022-12-07T02:57:10;11.33;;;6.97;;
8592;SDS011;4334;49.982;8.398;2022-12-07T02:59:54;12.17;;;7.43;;
8592;SDS011;4334;49.982;8.398;2022-12-07T03:02:30;10.97;;;6.90;;
8592;SDS011;4334;49.982;8.398;2022-12-07T03:05:07;13.47;;;7.47;;
8592;SDS011;4334;49.982;8.398;2022-12-07T03:08:00;12.13;;;7.40;;
8592;SDS011;4334;49.982;8.398;2022-12-07T03:10:33;10.40;;;6.67;;
8592;SDS011;4334;49.982;8.398;2022-12-07T03:13:05;12.20;;;6.87;;
8592;SDS011;4334;49.982;8.398;2022-12-07T03:15:40;10.23;;;6.30;;
8592;SDS011;4334;49.982;8.398;2022-12-07T03:18:11;9.23;;;5.90;;
8592;SDS011;4334;49.982;8.398;2022-12-07T03:20:40;14.30;;;6.30;;
8592;SDS011;4334;49.982;8.398;2022-12-07T03:23:08;11.50;;;6.43;;
8592;SDS011;4334;49.982;8.398;2022-12-07T03:25:39;10.70;;;6.27;;
8592;SDS011;4334;49.982;8.398;2022-12-07T03:28:10;11.67;;;7.10;;
8592;SDS011;4334;49.982;8.398;2022-12-07T03:30:44;12.23;;;6.53;;
8592;SDS011;4334;49.982;8.398;2022-12-07T03:33:17;9.93;;;6.27;;
8592;SDS011;4334;49.982;8.398;2022-12-07T03:35:49;10.57;;;6.37;;
8592;SDS011;4334;49.982;8.398;2022-12-07T03:38:21;13.13;;;6.27;;
8592;SDS011;4334;49.982;8.398;2022-12-07T03:40:52;12.07;;;6.60;;
8592;SDS011;4334;49.982;8.398;2022-12-07T03:43:27;12.73;;;6.57;;
8592;SDS011;4334;49.982;8.398;2022-12-07T03:45:58;13.93;;;6.63;;
8592;SDS011;4334;49.982;8.398;2022-12-07T03:48:33;15.80;;;7.63;;
8592;SDS011;4334;49.982;8.398;2022-12-07T03:51:06;16.87;;;7.43;;
8592;SDS011;4334;49.982;8.398;2022-12-07T03:53:39;14.07;;;7.53;;
8592;SDS011;4334;49.982;8.398;2022-12-07T03:56:11;13.83;;;7.33;;
8592;SDS011;4334;49.982;8.398;2022-12-07T03:58:38;16.33;;;7.93;;
8592;SDS011;4334;49.982;8.398;2022-12-07T04:01:09;14.63;;;7.10;;
8592;SDS011;4334;49.982;8.398;2022-12-07T04:03:36;12.93;;;6.53;;
8592;SDS011;4334;49.982;8.398;2022-12-07T04:06:03;13.63;;;6.33;;
8592;SDS011;4334;49.982;8.398;2022-12-07T04:08:30;12.03;;;5.90;;
8592;SDS011;4334;49.982;8.398;2022-12-07T04:10:57;11.77;;;6.43;;
8592;SDS011;4334;49.982;8.398;2022-12-07T04:13:24;10.90;;;6.47;;
8592;SDS011;4334;49.982;8.398;2022-12-07T04:15:51;9.67;;;6.17;;
8592;SDS011;4334;49.982;8.398;2022-12-07T04:18:19;8.43;;;5.57;;
8592;SDS011;4334;49.982;8.398;2022-12-07T04:20:46;12.00;;;7.07;;
8592;SDS011;4334;49.982;8.398;2022-12-07T04:23:13;8.57;;;5.23;;
8592;SDS011;4334;49.982;8.398;2022-12-07T04:25:40;10.23;;;6.27;;
8592;SDS011;4334;49.982;8.398;2022-12-07T04:28:07;9.67;;;5.90;;
8592;SDS011;4334;49.982;8.398;2022-12-07T04:30:34;9.40;;;5.27;;
8592;SDS011;4334;49.982;8.398;2022-12-07T04:33:01;10.60;;;5.97;;
8592;SDS011;4334;49.982;8.398;2022-12-07T04:35:29;9.10;;;5.77;;
8592;SDS011;4334;49.982;8.398;2022-12-07T04:37:56;11.67;;;6.47;;
8592;SDS011;4334;49.982;8.398;2022-12-07T04:40:23;9.87;;;5.87;;
8592;SDS011;4334;49.982;8.398;2022-12-07T04:42:50;10.43;;;6.73;;
8592;SDS011;4334;49.982;8.398;2022-12-07T04:45:16;9.00;;;5.70;;
8592;SDS011;4334;49.982;8.398;2022-12-07T04:47:43;9.67;;;6.17;;
8592;SDS011;4334;49.982;8.398;2022-12-07T04:50:10;9.03;;;5.73;;
8592;SDS011;4334;49.982;8.398;2022-12-07T04:52:39;10.43;;;5.97;;
8592;SDS011;4334;49.982;8.398;2022-12-07T04:55:06;13.13;;;7.80;;
8592;SDS011;4334;49.982;8.398;2022-12-07T04:57:33;19.10;;;10.07;;
8592;SDS011;4334;49.982;8.398;2022-12-07T05:00:00;19.00;;;10.30;;
8592;SDS011;4334;49.982;8.398;2022-12-07T05:02:27;17.90;;;11.57;;
8592;SDS011;4334;49.982;8.398;2022-12-07T05:04:54;15.03;;;8.70;;
8592;SDS011;4334;49.982;8.398;2022-12-07T05:07:20;20.10;;;12.07;;
8592;SDS011;4334;49.982;8.398;2022-12-07T05:09:49;17.10;;;10.37;;
8592;SDS011;4334;49.982;8.398;2022-12-07T05:12:16;13.87;;;8.77;;
8592;SDS011;4334;49.982;8.398;2022-12-07T05:14:42;12.97;;;7.00;;
8592;SDS011;4334;49.982;8.398;2022-12-07T05:17:09;11.20;;;6.77;;
8592;SDS011;4334;49.982;8.398;2022-12-07T05:19:37;9.60;;;6.80;;
8592;SDS011;4334;49.982;8.398;2022-12-07T05:22:04;10.27;;;6.07;;
8592;SDS011;4334;49.982;8.398;2022-12-07T05:24:31;12.70;;;6.80;;
8592;SDS011;4334;49.982;8.398;2022-12-07T05:26:59;10.17;;;6.80;;
8592;SDS011;4334;49.982;8.398;2022-12-07T05:29:26;12.87;;;7.67;;
8592;SDS011;4334;49.982;8.398;2022-12-07T05:31:53;16.30;;;7.77;;
8592;SDS011;4334;49.982;8.398;2022-12-07T05:34:20;11.97;;;7.40;;
8592;SDS011;4334;49.982;8.398;2022-12-07T05:36:47;9.23;;;6.57;;
8592;SDS011;4334;49.982;8.398;2022-12-07T05:39:14;12.07;;;6.83;;
8592;SDS011;4334;49.982;8.398;2022-12-07T05:41:44;10.97;;;7.70;;
8592;SDS011;4334;49.982;8.398;2022-12-07T05:44:30;11.97;;;7.27;;
8592;SDS011;4334;49.982;8.398;2022-12-07T05:46:56;12.13;;;7.90;;
8592;SDS011;4334;49.982;8.398;2022-12-07T05:49:23;11.23;;;7.20;;
8592;SDS011;4334;49.982;8.398;2022-12-07T05:51:50;15.13;;;7.50;;
8592;SDS011;4334;49.982;8.398;2022-12-07T05:54:17;11.07;;;7.10;;
8592;SDS011;4334;49.982;8.398;2022-12-07T05:56:44;12.70;;;8.73;;
8592;SDS011;4334;49.982;8.398;2022-12-07T05:59:11;14.40;;;8.87;;
8592;SDS011;4334;49.982;8.398;2022-12-07T06:01:54;15.33;;;8.30;;
8592;SDS011;4334;49.982;8.398;2022-12-07T06:04:22;15.53;;;8.40;;
8592;SDS011;4334;49.982;8.398;2022-12-07T06:06:50;12.60;;;8.13;;
8592;SDS011;4334;49.982;8.398;2022-12-07T06:09:18;12.20;;;7.33;;
8592;SDS011;4334;49.982;8.398;2022-12-07T06:11:46;15.80;;;8.23;;
8592;SDS011;4334;49.982;8.398;2022-12-07T06:14:31;20.17;;;9.87;;
8592;SDS011;4334;49.982;8.398;2022-12-07T06:16:59;21.80;;;10.90;;
8592;SDS011;4334;49.982;8.398;2022-12-07T06:19:26;20.07;;;9.10;;
8592;SDS011;4334;49.982;8.398;2022-12-07T06:21:53;17.07;;;8.70;;
8592;SDS011;4334;49.982;8.398;2022-12-07T06:24:20;19.33;;;9.77;;
8592;SDS011;4334;49.982;8.398;2022-12-07T06:26:47;18.33;;;9.03;;
8592;SDS011;4334;49.982;8.398;2022-12-07T06:29:15;13.17;;;8.73;;
8592;SDS011;4334;49.982;8.398;2022-12-07T06:31:45;14.07;;;8.37;;
8592;SDS011;4334;49.982;8.398;2022-12-07T06:34:15;14.60;;;8.73;;
8592;SDS011;4334;49.982;8.398;2022-12-07T06:36:43;12.93;;;8.53;;
8592;SDS011;4334;49.982;8.398;2022-12-07T06:39:10;12.40;;;8.30;;
8592;SDS011;4334;49.982;8.398;2022-12-07T06:41:37;14.90;;;8.87;;
8592;SDS011;4334;49.982;8.398;2022-12-07T06:44:05;20.20;;;9.27;;
8592;SDS011;4334;49.982;8.398;2022-12-07T06:46:32;43.10;;;23.90;;
8592;SDS011;4334;49.982;8.398;2022-12-07T06:49:00;13.27;;;8.97;;
8592;SDS011;4334;49.982;8.398;2022-12-07T06:51:28;15.37;;;9.37;;
8592;SDS011;4334;49.982;8.398;2022-12-07T06:53:55;15.17;;;9.67;;
8592;SDS011;4334;49.982;8.398;2022-12-07T06:56:22;13.47;;;8.90;;
8592;SDS011;4334;49.982;8.398;2022-12-07T06:58:49;15.10;;;8.90;;
8592;SDS011;4334;49.982;8.398;2022-12-07T07:01:17;16.77;;;9.03;;
8592;SDS011;4334;49.982;8.398;2022-12-07T07:03:44;14.90;;;8.93;;
8592;SDS011;4334;49.982;8.398;2022-12-07T07:06:12;20.83;;;10.07;;
8592;SDS011;4334;49.982;8.398;2022-12-07T07:08:40;13.33;;;8.53;;
8592;SDS011;4334;49.982;8.398;2022-12-07T07:11:08;14.57;;;8.67;;
8592;SDS011;4334;49.982;8.398;2022-12-07T07:13:36;14.70;;;8.63;;
8592;SDS011;4334;49.982;8.398;2022-12-07T07:16:03;13.63;;;8.47;;
8592;SDS011;4334;49.982;8.398;2022-12-07T07:18:31;13.70;;;8.47;;
8592;SDS011;4334;49.982;8.398;2022-12-07T07:20:58;13.47;;;8.13;;
8592;SDS011;4334;49.982;8.398;2022-12-07T07:23:24;12.53;;;7.97;;
8592;SDS011;4334;49.982;8.398;2022-12-07T07:25:52;14.30;;;8.50;;
8592;SDS011;4334;49.982;8.398;2022-12-07T07:28:19;18.03;;;9.10;;
8592;SDS011;4334;49.982;8.398;2022-12-07T07:30:46;12.83;;;8.13;;
8592;SDS011;4334;49.982;8.398;2022-12-07T07:33:13;12.93;;;8.23;;
8592;SDS011;4334;49.982;8.398;2022-12-07T07:35:40;14.33;;;7.97;;
8592;SDS011;4334;49.982;8.398;2022-12-07T07:38:07;13.57;;;8.23;;
8592;SDS011;4334;49.982;8.398;2022-12-07T07:40:34;11.73;;;8.00;;
8592;SDS011;4334;49.982;8.398;2022-12-07T07:43:03;12.20;;;7.43;;
8592;SDS011;4334;49.982;8.398;2022-12-07T07:45:30;12.50;;;8.50;;
8592;SDS011;4334;49.982;8.398;2022-12-07T07:47:57;15.23;;;9.10;;
8592;SDS011;4334;49.982;8.398;2022-12-07T07:50:24;16.50;;;8.43;;
8592;SDS011;4334;49.982;8.398;2022-12-07T07:52:50;11.33;;;7.80;;
8592;SDS011;4334;49.982;8.398;2022-12-07T07:55:18;11.03;;;7.67;;
8592;SDS011;4334;49.982;8.398;2022-12-07T07:57:45;12.60;;;8.07;;
8592;SDS011;4334;49.982;8.398;2022-12-07T08:00:14;12.67;;;7.73;;
8592;SDS011;4334;49.982;8.398;2022-12-07T08:02:43;11.23;;;7.60;;
8592;SDS011;4334;49.982;8.398;2022-12-07T08:05:11;12.60;;;7.67;;
8592;SDS011;4334;49.982;8.398;2022-12-07T08:07:38;10.93;;;7.53;;
8592;SDS011;4334;49.982;8.398;2022-12-07T08:10:05;14.13;;;8.27;;
8592;SDS011;4334;49.982;8.398;2022-12-07T08:12:35;13.30;;;8.57;;
8592;SDS011;4334;49.982;8.398;2022-12-07T08:15:03;10.70;;;7.50;;
8592;SDS011;4334;49.982;8.398;2022-12-07T08:17:31;13.83;;;7.73;;
8592;SDS011;4334;49.982;8.398;2022-12-07T08:19:59;17.20;;;8.27;;
8592;SDS011;4334;49.982;8.398;2022-12-07T08:22:26;13.20;;;8.17;;
8592;SDS011;4334;49.982;8.398;2022-12-07T08:24:53;11.73;;;7.10;;
8592;SDS011;4334;49.982;8.398;2022-12-07T08:27:19;12.90;;;7.90;;
8592;SDS011;4334;49.982;8.398;2022-12-07T08:29:51;11.23;;;7.67;;
8592;SDS011;4334;49.982;8.398;2022-12-07T08:32:18;10.73;;;7.40;;
8592;SDS011;4334;49.982;8.398;2022-12-07T08:34:46;12.00;;;7.60;;
8592;SDS011;4334;49.982;8.398;2022-12-07T08:37:14;10.90;;;7.53;;
8592;SDS011;4334;49.982;8.398;2022-12-07T08:39:41;11.67;;;7.63;;
8592;SDS011;4334;49.982;8.398;2022-12-07T08:42:10;16.27;;;8.37;;
8592;SDS011;4334;49.982;8.398;2022-12-07T08:44:37;15.73;;;8.63;;
8592;SDS011;4334;49.982;8.398;2022-12-07T08:47:05;13.43;;;8.83;;
8592;SDS011;4334;49.982;8.398;2022-12-07T08:49:35;18.57;;;10.97;;
8592;SDS011;4334;49.982;8.398;2022-12-07T08:52:06;21.67;;;10.77;;
8592;SDS011;4334;49.982;8.398;2022-12-07T08:54:34;21.20;;;9.50;;
8592;SDS011;4334;49.982;8.398;2022-12-07T08:57:03;23.07;;;10.57;;
8592;SDS011;4334;49.982;8.398;2022-12-07T08:59:31;15.93;;;8.40;;
8592;SDS011;4334;49.982;8.398;2022-12-07T09:02:00;17.93;;;8.77;;
8592;SDS011;4334;49.982;8.398;2022-12-07T09:04:27;19.13;;;9.70;;
8592;SDS011;4334;49.982;8.398;2022-12-07T09:06:54;47.13;;;11.20;;
8592;SDS011;4334;49.982;8.398;2022-12-07T09:09:23;19.40;;;8.90;;
8592;SDS011;4334;49.982;8.398;2022-12-07T09:11:50;18.10;;;8.73;;
8592;SDS011;4334;49.982;8.398;2022-12-07T09:14:17;20.00;;;9.13;;
8592;SDS011;4334;49.982;8.398;2022-12-07T09:16:48;16.23;;;9.47;;
8592;SDS011;4334;49.982;8.398;2022-12-07T09:19:15;19.53;;;9.83;;
8592;SDS011;4334;49.982;8.398;2022-12-07T09:21:43;14.97;;;9.43;;
8592;SDS011;4334;49.982;8.398;2022-12-07T09:24:11;16.00;;;9.93;;
8592;SDS011;4334;49.982;8.398;2022-12-07T09:26:39;15.83;;;10.03;;
8592;SDS011;4334;49.982;8.398;2022-12-07T09:29:06;15.27;;;10.23;;
8592;SDS011;4334;49.982;8.398;2022-12-07T09:31:35;15.47;;;9.70;;
8592;SDS011;4334;49.982;8.398;2022-12-07T09:34:03;16.57;;;10.17;;
8592;SDS011;4334;49.982;8.398;2022-12-07T09:36:31;17.93;;;10.27;;
8592;SDS011;4334;49.982;8.398;2022-12-07T09:38:59;16.70;;;9.63;;
8592;SDS011;4334;49.982;8.398;2022-12-07T09:41:26;18.27;;;10.67;;
8592;SDS011;4334;49.982;8.398;2022-12-07T09:43:58;24.27;;;11.97;;
8592;SDS011;4334;49.982;8.398;2022-12-07T09:46:30;19.70;;;11.43;;
8592;SDS011;4334;49.982;8.398;2022-12-07T09:49:02;20.37;;;11.50;;
8592;SDS011;4334;49.982;8.398;2022-12-07T09:51:30;21.77;;;11.50;;
8592;SDS011;4334;49.982;8.398;2022-12-07T09:53:58;20.37;;;11.07;;
8592;SDS011;4334;49.982;8.398;2022-12-07T09:56:28;19.53;;;11.03;;
8592;SDS011;4334;49.982;8.398;2022-12-07T09:58:59;16.47;;;10.70;;
8592;SDS011;4334;49.982;8.398;2022-12-07T10:01:28;18.50;;;9.30;;
8592;SDS011;4334;49.982;8.398;2022-12-07T10:03:58;16.33;;;8.40;;
8592;SDS011;4334;49.982;8.398;2022-12-07T10:06:33;13.17;;;8.80;;
8592;SDS011;4334;49.982;8.398;2022-12-07T10:09:00;29.20;;;18.17;;
8592;SDS011;4334;49.982;8.398;2022-12-07T10:11:27;17.53;;;9.83;;
8592;SDS011;4334;49.982;8.398;2022-12-07T10:13:54;19.80;;;8.83;;
8592;SDS011;4334;49.982;8.398;2022-12-07T10:16:30;14.50;;;8.83;;
8592;SDS011;4334;49.982;8.398;2022-12-07T10:19:17;45.60;;;20.00;;
8592;SDS011;4334;49.982;8.398;2022-12-07T10:21:58;17.37;;;10.80;;
8592;SDS011;4334;49.982;8.398;2022-12-07T10:24:28;12.57;;;7.27;;
8592;SDS011;4334;49.982;8.398;2022-12-07T10:26:55;8.00;;;5.70;;
8592;SDS011;4334;49.982;8.398;2022-12-07T10:29:24;8.20;;;5.40;;
8592;SDS011;4334;49.982;8.398;2022-12-07T10:32:00;9.07;;;5.10;;
8592;SDS011;4334;49.982;8.398;2022-12-07T10:34:29;7.87;;;5.30;;
8592;SDS011;4334;49.982;8.398;2022-12-07T10:39:44;6.33;;;4.30;;
8592;SDS011;4334;49.982;8.398;2022-12-07T10:42:15;5.93;;;4.13;;
8592;SDS011;4334;49.982;8.398;2022-12-07T10:44:45;8.10;;;4.40;;
8592;SDS011;4334;49.982;8.398;2022-12-07T10:47:20;6.13;;;4.00;;
8592;SDS011;4334;49.982;8.398;2022-12-07T10:53:03;5.00;;;3.70;;
8592;SDS011;4334;49.982;8.398;2022-12-07T10:55:41;7.17;;;4.67;;
8592;SDS011;4334;49.982;8.398;2022-12-07T10:58:31;5.40;;;3.90;;
8592;SDS011;4334;49.982;8.398;2022-12-07T11:01:13;6.17;;;4.33;;
8592;SDS011;4334;49.982;8.398;2022-12-07T11:04:06;6.17;;;4.17;;
8592;SDS011;4334;49.982;8.398;2022-12-07T11:06:43;7.43;;;3.93;;
8592;SDS011;4334;49.982;8.398;2022-12-07T11:12:23;9.13;;;4.10;;
8592;SDS011;4334;49.982;8.398;2022-12-07T11:15:00;7.47;;;3.63;;
8592;SDS011;4334;49.982;8.398;2022-12-07T11:17:32;5.77;;;2.83;;
8592;SDS011;4334;49.982;8.398;2022-12-07T11:20:14;5.17;;;2.90;;
8592;SDS011;4334;49.982;8.398;2022-12-07T11:22:55;6.30;;;2.70;;
8592;SDS011;4334;49.982;8.398;2022-12-07T11:25:31;5.70;;;2.40;;
8592;SDS011;4334;49.982;8.398;2022-12-07T11:28:03;4.10;;;2.57;;
8592;SDS011;4334;49.982;8.398;2022-12-07T11:30:46;7.60;;;3.23;;
8592;SDS011;4334;49.982;8.398;2022-12-07T11:33:21;4.40;;;2.33;;
8592;SDS011;4334;49.982;8.398;2022-12-07T11:36:00;3.87;;;2.57;;
8592;SDS011;4334;49.982;8.398;2022-12-07T11:38:35;4.43;;;2.30;;
8592;SDS011;4334;49.982;8.398;2022-12-07T11:41:09;6.83;;;2.47;;
8592;SDS011;4334;49.982;8.398;2022-12-07T11:43:42;5.07;;;2.53;;
8592;SDS011;4334;49.982;8.398;2022-12-07T11:46:18;5.70;;;2.53;;
8592;SDS011;4334;49.982;8.398;2022-12-07T11:48:50;4.07;;;2.70;;
8592;SDS011;4334;49.982;8.398;2022-12-07T11:51:25;4.53;;;2.53;;
8592;SDS011;4334;49.982;8.398;2022-12-07T11:53:55;5.53;;;2.60;;
8592;SDS011;4334;49.982;8.398;2022-12-07T11:56:25;7.30;;;4.50;;
8592;SDS011;4334;49.982;8.398;2022-12-07T11:58:54;6.50;;;3.03;;
8592;SDS011;4334;49.982;8.398;2022-12-07T12:01:29;5.67;;;2.17;;
8592;SDS011;4334;49.982;8.398;2022-12-07T12:04:05;5.00;;;2.40;;
8592;SDS011;4334;49.982;8.398;2022-12-07T12:06:44;6.10;;;2.33;;
8592;SDS011;4334;49.982;8.398;2022-12-07T12:09:12;7.07;;;3.40;;
8592;SDS011;4334;49.982;8.398;2022-12-07T12:11:46;6.07;;;2.47;;
8592;SDS011;4334;49.982;8.398;2022-12-07T12:14:42;5.27;;;2.00;;
8592;SDS011;4334;49.982;8.398;2022-12-07T12:17:22;2.80;;;1.80;;
8592;SDS011;4334;49.982;8.398;2022-12-07T12:20:15;3.03;;;1.87;;
8592;SDS011;4334;49.982;8.398;2022-12-07T12:22:48;2.63;;;2.00;;
8592;SDS011;4334;49.982;8.398;2022-12-07T12:25:20;4.63;;;1.90;;
8592;SDS011;4334;49.982;8.398;2022-12-07T12:27:49;3.30;;;1.80;;
8592;SDS011;4334;49.982;8.398;2022-12-07T12:30:26;9.43;;;2.10;;
8592;SDS011;4334;49.982;8.398;2022-12-07T12:33:01;3.13;;;1.80;;
8592;SDS011;4334;49.982;8.398;2022-12-07T12:35:30;3.47;;;1.80;;
8592;SDS011;4334;49.982;8.398;2022-12-07T12:41:00;3.73;;;1.80;;
8592;SDS011;4334;49.982;8.398;2022-12-07T12:43:44;3.77;;;1.50;;
8592;SDS011;4334;49.982;8.398;2022-12-07T12:55:16;4.07;;;1.73;;
8592;SDS011;4334;49.982;8.398;2022-12-07T13:04:27;4.37;;;1.60;;
8592;SDS011;4334;49.982;8.398;2022-12-07T13:07:47;3.07;;;1.73;;
8592;SDS011;4334;49.982;8.398;2022-12-07T13:13:29;3.70;;;1.60;;
8592;SDS011;4334;49.982;8.398;2022-12-07T13:22:39;3.30;;;1.60;;
8592;SDS011;4334;49.982;8.398;2022-12-07T13:25:10;3.97;;;1.73;;
8592;SDS011;4334;49.982;8.398;2022-12-07T13:27:47;2.77;;;1.60;;
8592;SDS011;4334;49.982;8.398;2022-12-07T13:30:19;2.63;;;1.53;;
8592;SDS011;4334;49.982;8.398;2022-12-07T13:32:50;4.90;;;1.73;;
8592;SDS011;4334;49.982;8.398;2022-12-07T13:35:32;4.10;;;1.80;;
8592;SDS011;4334;49.982;8.398;2022-12-07T13:38:04;2.80;;;1.83;;
8592;SDS011;4334;49.982;8.398;2022-12-07T13:41:10;3.17;;;1.73;;
8592;SDS011;4334;49.982;8.398;2022-12-07T13:43:44;2.63;;;1.83;;
8592;SDS011;4334;49.982;8.398;2022-12-07T13:46:13;3.37;;;2.00;;
8592;SDS011;4334;49.982;8.398;2022-12-07T13:48:43;3.30;;;1.60;;
8592;SDS011;4334;49.982;8.398;2022-12-07T13:51:19;3.20;;;1.73;;
8592;SDS011;4334;49.982;8.398;2022-12-07T13:53:49;5.07;;;2.30;;
8592;SDS011;4334;49.982;8.398;2022-12-07T13:56:17;5.43;;;2.10;;
8592;SDS011;4334;49.982;8.398;2022-12-07T13:58:48;3.87;;;1.77;;
8592;SDS011;4334;49.982;8.398;2022-12-07T14:01:15;3.23;;;2.10;;
8592;SDS011;4334;49.982;8.398;2022-12-07T14:03:43;4.93;;;1.93;;
8592;SDS011;4334;49.982;8.398;2022-12-07T14:06:15;3.03;;;1.80;;
8592;SDS011;4334;49.982;8.398;2022-12-07T14:08:50;3.03;;;1.60;;
8592;SDS011;4334;49.982;8.398;2022-12-07T14:11:31;8.23;;;2.27;;
8592;SDS011;4334;49.982;8.398;2022-12-07T14:14:01;6.73;;;2.50;;
8592;SDS011;4334;49.982;8.398;2022-12-07T14:16:30;5.87;;;2.60;;
8592;SDS011;4334;49.982;8.398;2022-12-07T14:18:59;10.23;;;2.30;;
8592;SDS011;4334;49.982;8.398;2022-12-07T14:21:28;3.97;;;1.80;;
8592;SDS011;4334;49.982;8.398;2022-12-07T14:24:10;2.93;;;1.77;;
8592;SDS011;4334;49.982;8.398;2022-12-07T14:26:41;5.80;;;2.20;;
8592;SDS011;4334;49.982;8.398;2022-12-07T14:32:20;3.63;;;1.87;;
8592;SDS011;4334;49.982;8.398;2022-12-07T14:34:57;2.73;;;1.97;;
8592;SDS011;4334;49.982;8.398;2022-12-07T14:37:25;2.90;;;1.70;;
8592;SDS011;4334;49.982;8.398;2022-12-07T14:39:52;4.40;;;2.30;;
8592;SDS011;4334;49.982;8.398;2022-12-07T14:42:19;4.30;;;2.47;;
8592;SDS011;4334;49.982;8.398;2022-12-07T14:44:51;7.33;;;2.40;;
8592;SDS011;4334;49.982;8.398;2022-12-07T14:47:17;4.00;;;2.20;;
8592;SDS011;4334;49.982;8.398;2022-12-07T14:49:44;6.43;;;3.13;;
8592;SDS011;4334;49.982;8.398;2022-12-07T14:52:13;5.37;;;2.60;;
8592;SDS011;4334;49.982;8.398;2022-12-07T14:54:43;6.87;;;2.90;;
8592;SDS011;4334;49.982;8.398;2022-12-07T14:57:10;6.20;;;2.73;;
8592;SDS011;4334;49.982;8.398;2022-12-07T14:59:37;4.77;;;2.30;;
8592;SDS011;4334;49.982;8.398;2022-12-07T15:02:06;10.43;;;3.03;;
8592;SDS011;4334;49.982;8.398;2022-12-07T15:04:37;5.83;;;3.07;;
8592;SDS011;4334;49.982;8.398;2022-12-07T15:07:04;6.23;;;3.20;;
8592;SDS011;4334;49.982;8.398;2022-12-07T15:09:32;6.97;;;3.53;;
8592;SDS011;4334;49.982;8.398;2022-12-07T15:11:59;5.73;;;2.93;;
8592;SDS011;4334;49.982;8.398;2022-12-07T15:14:26;7.10;;;2.80;;
8592;SDS011;4334;49.982;8.398;2022-12-07T15:16:53;9.03;;;2.93;;
8592;SDS011;4334;49.982;8.398;2022-12-07T15:19:22;39.90;;;5.30;;
8592;SDS011;4334;49.982;8.398;2022-12-07T15:21:51;22.60;;;4.90;;
8592;SDS011;4334;49.982;8.398;2022-12-07T15:24:18;4.47;;;2.50;;
8592;SDS011;4334;49.982;8.398;2022-12-07T15:26:46;6.53;;;2.30;;
8592;SDS011;4334;49.982;8.398;2022-12-07T15:29:13;6.27;;;2.40;;
8592;SDS011;4334;49.982;8.398;2022-12-07T15:31:42;8.90;;;2.50;;
8592;SDS011;4334;49.982;8.398;2022-12-07T15:34:08;6.17;;;2.60;;
8592;SDS011;4334;49.982;8.398;2022-12-07T15:36:37;6.03;;;2.40;;
8592;SDS011;4334;49.982;8.398;2022-12-07T15:39:04;10.83;;;2.80;;
8592;SDS011;4334;49.982;8.398;2022-12-07T15:41:31;6.53;;;2.63;;
8592;SDS011;4334;49.982;8.398;2022-12-07T15:43:58;4.17;;;2.40;;
8592;SDS011;4334;49.982;8.398;2022-12-07T15:46:43;6.33;;;2.60;;
8592;SDS011;4334;49.982;8.398;2022-12-07T15:49:11;3.83;;;1.80;;
8592;SDS011;4334;49.982;8.398;2022-12-07T15:51:41;5.80;;;1.80;;
8592;SDS011;4334;49.982;8.398;2022-12-07T15:54:11;5.37;;;1.80;;
8592;SDS011;4334;49.982;8.398;2022-12-07T15:56:42;6.17;;;2.20;;
8592;SDS011;4334;49.982;8.398;2022-12-07T15:59:09;4.30;;;2.10;;
8592;SDS011;4334;49.982;8.398;2022-12-07T16:01:35;7.33;;;2.97;;
8592;SDS011;4334;49.982;8.398;2022-12-07T16:04:02;6.93;;;3.97;;
8592;SDS011;4334;49.982;8.398;2022-12-07T16:06:29;23.03;;;3.70;;
8592;SDS011;4334;49.982;8.398;2022-12-07T16:08:57;8.13;;;3.70;;